Time,TemperatureF,DewpointF,PressureIn,WindDirection,WindDirectionDegrees,WindSpeedMPH,WindSpeedGustMPH,Humidity,HourlyPrecipIn,Conditions,Clouds,dailyrainin,SoftwareType,DateUTC
2013-10-12 00:05:00,57.8,52.3,30.08,ESE,104,0.0,0.0,82,0.00,,,0.00,Wunderground v.1.15,2013-10-12 04:05:00,
2013-10-12 00:10:00,58.0,52.5,30.08,East,101,0.0,0.0,82,0.00,,,0.00,Wunderground v.1.15,2013-10-12 04:10:00,
2013-10-12 00:15:00,58.0,52.2,30.08,ESE,110,1.0,1.0,81,0.00,,,0.00,Wunderground v.1.15,2013-10-12 04:15:00,
2013-10-12 00:20:00,57.9,52.1,30.08,ESE,113,1.0,2.0,81,0.00,,,0.00,Wunderground v.1.15,2013-10-12 04:20:00,
2013-10-12 00:25:00,57.8,51.7,30.08,ESE,122,1.0,2.0,80,0.00,,,0.00,Wunderground v.1.15,2013-10-12 04:25:00,
2013-10-12 00:30:00,57.6,51.1,30.08,SE,125,1.0,1.0,79,0.00,,,0.00,Wunderground v.1.15,2013-10-12 04:30:00,
2013-10-12 00:40:00,56.8,50.4,30.08,ESE,115,1.0,3.0,79,0.00,,,0.00,Wunderground v.1.15,2013-10-12 04:40:00,
2013-10-12 00:45:00,56.6,49.8,30.08,East,100,2.0,3.0,78,0.00,,,0.00,Wunderground v.1.15,2013-10-12 04:45:00,
2013-10-12 00:50:00,56.6,49.8,30.08,ESE,110,2.0,2.0,78,0.00,,,0.00,Wunderground v.1.15,2013-10-12 04:50:00,
2013-10-12 00:55:00,56.7,49.6,30.08,ESE,115,2.0,2.0,77,0.00,,,0.00,Wunderground v.1.15,2013-10-12 04:55:00,
2013-10-12 01:00:00,56.6,49.1,30.08,East,97,1.0,2.0,76,0.00,,,0.00,Wunderground v.1.15,2013-10-12 05:00:00,
2013-10-12 01:10:00,56.7,49.2,30.08,ESE,107,1.0,2.0,76,0.00,,,0.00,Wunderground v.1.15,2013-10-12 05:10:00,
2013-10-12 01:15:00,56.7,49.2,30.08,ESE,115,1.0,2.0,76,0.00,,,0.00,Wunderground v.1.15,2013-10-12 05:15:00,
2013-10-12 01:20:00,56.6,49.1,30.08,SE,126,1.0,1.0,76,0.00,,,0.00,Wunderground v.1.15,2013-10-12 05:20:00,
2013-10-12 01:25:00,56.3,48.8,30.08,ESE,103,1.0,1.0,76,0.00,,,0.00,Wunderground v.1.15,2013-10-12 05:25:00,
2013-10-12 01:30:00,55.9,48.8,30.08,ESE,115,1.0,2.0,77,0.00,,,0.00,Wunderground v.1.15,2013-10-12 05:30:00,
2013-10-12 01:35:00,55.8,49.0,30.08,ESE,121,1.0,2.0,78,0.00,,,0.00,Wunderground v.1.15,2013-10-12 05:35:00,
2013-10-12 01:45:00,55.7,49.3,30.08,ESE,122,1.0,2.0,79,0.00,,,0.00,Wunderground v.1.15,2013-10-12 05:45:00,
2013-10-12 01:50:00,55.5,49.1,30.08,ESE,116,2.0,2.0,79,0.00,,,0.00,Wunderground v.1.15,2013-10-12 05:50:00,
2013-10-12 01:55:00,55.4,49.0,30.08,ESE,110,2.0,2.0,79,0.00,,,0.00,Wunderground v.1.15,2013-10-12 05:55:00,
2013-10-12 02:00:00,55.1,49.4,30.08,SE,138,2.0,3.0,81,0.00,,,0.00,Wunderground v.1.15,2013-10-12 06:00:00,
2013-10-12 02:10:00,54.9,49.5,30.08,ESE,118,2.0,2.0,82,0.00,,,0.00,Wunderground v.1.15,2013-10-12 06:10:00,
2013-10-12 02:15:00,54.8,49.4,30.08,SE,127,1.0,3.0,82,0.00,,,0.00,Wunderground v.1.15,2013-10-12 06:15:00,
2013-10-12 02:20:00,54.7,49.6,30.08,ESE,115,2.0,2.0,83,0.00,,,0.00,Wunderground v.1.15,2013-10-12 06:20:00,
2013-10-12 02:25:00,54.5,49.4,30.09,SE,131,2.0,2.0,83,0.00,,,0.00,Wunderground v.1.15,2013-10-12 06:25:00,
2013-10-12 02:30:00,54.2,49.5,30.09,SE,137,1.0,1.0,84,0.00,,,0.00,Wunderground v.1.15,2013-10-12 06:30:00,
2013-10-12 02:35:00,54.0,49.3,30.09,SE,137,0.0,1.0,84,0.00,,,0.00,Wunderground v.1.15,2013-10-12 06:35:00,
2013-10-12 02:40:00,53.4,48.7,30.09,SE,136,0.0,0.0,84,0.00,,,0.00,Wunderground v.1.15,2013-10-12 06:40:00,
2013-10-12 02:50:00,52.1,48.3,30.09,SE,137,0.0,0.0,87,0.00,,,0.00,Wunderground v.1.15,2013-10-12 06:50:00,
2013-10-12 02:55:00,51.7,48.3,30.09,SE,136,0.0,0.0,88,0.00,,,0.00,Wunderground v.1.15,2013-10-12 06:55:00,
2013-10-12 03:00:00,51.6,48.8,30.10,SE,137,0.0,0.0,90,0.00,,,0.00,Wunderground v.1.15,2013-10-12 07:00:00,
2013-10-12 03:10:00,51.4,48.6,30.10,SE,137,0.0,0.0,90,0.00,,,0.00,Wunderground v.1.15,2013-10-12 07:10:00,
2013-10-12 03:15:00,51.2,48.4,30.10,SE,137,0.0,0.0,90,0.00,,,0.00,Wunderground v.1.15,2013-10-12 07:15:00,
2013-10-12 03:20:00,51.2,49.0,30.09,SE,137,0.0,0.0,92,0.00,,,0.00,Wunderground v.1.15,2013-10-12 07:20:00,
2013-10-12 03:25:00,51.3,49.1,30.09,SE,137,0.0,0.0,92,0.00,,,0.00,Wunderground v.1.15,2013-10-12 07:25:00,
2013-10-12 03:30:00,51.0,48.5,30.09,NE,49,0.0,0.0,91,0.00,,,0.00,Wunderground v.1.15,2013-10-12 07:30:00,
2013-10-12 03:35:00,51.2,49.2,30.09,NE,50,0.0,0.0,93,0.00,,,0.00,Wunderground v.1.15,2013-10-12 07:35:00,
2013-10-12 03:40:00,50.9,48.4,30.09,NE,50,0.0,0.0,91,0.00,,,0.00,Wunderground v.1.15,2013-10-12 07:40:00,
2013-10-12 03:50:00,51.1,49.1,30.09,NE,50,0.0,0.0,93,0.00,,,0.00,Wunderground v.1.15,2013-10-12 07:50:00,
2013-10-12 03:55:00,50.6,47.8,30.09,NE,50,0.0,0.0,90,0.00,,,0.00,Wunderground v.1.15,2013-10-12 07:55:00,
2013-10-12 04:00:00,50.1,47.9,30.09,NE,50,0.0,0.0,92,0.00,,,0.00,Wunderground v.1.15,2013-10-12 08:00:00,
2013-10-12 04:10:00,49.6,47.1,30.09,NE,50,0.0,0.0,91,0.00,,,0.00,Wunderground v.1.15,2013-10-12 08:10:00,
2013-10-12 04:15:00,48.4,45.9,30.09,NE,49,0.0,0.0,91,0.00,,,0.00,Wunderground v.1.15,2013-10-12 08:15:00,
2013-10-12 04:25:00,49.6,48.5,30.09,NE,50,0.0,0.0,96,0.00,,,0.00,Wunderground v.1.15,2013-10-12 08:25:00,
2013-10-12 04:30:00,50.4,49.6,30.09,NE,50,0.0,0.0,97,0.00,,,0.00,Wunderground v.1.15,2013-10-12 08:30:00,
2013-10-12 04:35:00,51.0,49.9,30.09,ENE,70,0.0,0.0,96,0.00,,,0.00,Wunderground v.1.15,2013-10-12 08:35:00,
2013-10-12 04:40:00,50.8,48.8,30.09,ENE,71,0.0,0.0,93,0.00,,,0.00,Wunderground v.1.15,2013-10-12 08:40:00,
2013-10-12 04:45:00,50.1,47.9,30.09,ENE,70,0.0,0.0,92,0.00,,,0.00,Wunderground v.1.15,2013-10-12 08:45:00,
2013-10-12 04:55:00,49.3,47.6,30.09,ENE,70,0.0,0.0,94,0.00,,,0.00,Wunderground v.1.15,2013-10-12 08:55:00,
2013-10-12 05:00:00,48.9,47.2,30.09,ENE,70,0.0,0.0,94,0.00,,,0.00,Wunderground v.1.15,2013-10-12 09:00:00,
2013-10-12 05:10:00,49.3,48.2,30.09,ENE,74,0.0,0.0,96,0.00,,,0.00,Wunderground v.1.15,2013-10-12 09:10:00,
2013-10-12 05:15:00,48.7,47.3,30.09,ENE,73,0.0,0.0,95,0.00,,,0.00,Wunderground v.1.15,2013-10-12 09:15:00,
2013-10-12 05:20:00,48.6,47.2,30.09,ENE,73,0.0,0.0,95,0.00,,,0.00,Wunderground v.1.15,2013-10-12 09:20:00,
2013-10-12 05:30:00,49.0,47.3,30.09,ENE,74,0.0,0.0,94,0.00,,,0.00,Wunderground v.1.15,2013-10-12 09:30:00,
2013-10-12 05:35:00,49.0,47.9,30.09,ENE,73,0.0,0.0,96,0.00,,,0.00,Wunderground v.1.15,2013-10-12 09:35:00,
2013-10-12 05:40:00,48.0,46.4,30.09,ENE,73,0.0,0.0,94,0.00,,,0.00,Wunderground v.1.15,2013-10-12 09:40:00,
2013-10-12 05:45:00,49.1,48.3,30.09,ENE,73,0.0,0.0,97,0.00,,,0.00,Wunderground v.1.15,2013-10-12 09:45:00,
2013-10-12 05:50:00,50.1,49.6,30.09,ENE,74,0.0,0.0,98,0.00,,,0.00,Wunderground v.1.15,2013-10-12 09:50:00,
2013-10-12 06:00:00,48.5,47.1,30.09,ENE,73,0.0,0.0,95,0.00,,,0.00,Wunderground v.1.15,2013-10-12 10:00:00,
2013-10-12 06:10:00,48.0,46.6,30.09,ENE,73,0.0,0.0,95,0.00,,,0.00,Wunderground v.1.15,2013-10-12 10:10:00,
2013-10-12 06:15:00,48.0,46.9,30.09,ENE,73,0.0,0.0,96,0.00,,,0.00,Wunderground v.1.15,2013-10-12 10:15:00,
2013-10-12 06:20:00,48.4,47.6,30.09,ENE,74,0.0,0.0,97,0.00,,,0.00,Wunderground v.1.15,2013-10-12 10:20:00,
2013-10-12 06:25:00,48.9,48.1,30.09,ENE,73,0.0,0.0,97,0.00,,,0.00,Wunderground v.1.15,2013-10-12 10:25:00,
2013-10-12 06:35:00,49.9,49.4,30.09,East,89,0.0,0.0,98,0.00,,,0.00,Wunderground v.1.15,2013-10-12 10:35:00,
2013-10-12 06:40:00,49.5,48.7,30.09,East,86,0.0,1.0,97,0.00,,,0.00,Wunderground v.1.15,2013-10-12 10:40:00,
2013-10-12 06:45:00,50.2,49.7,30.09,East,80,0.0,1.0,98,0.00,,,0.00,Wunderground v.1.15,2013-10-12 10:45:00,
2013-10-12 06:50:00,50.4,49.9,30.09,East,80,0.0,0.0,98,0.00,,,0.00,Wunderground v.1.15,2013-10-12 10:50:00,
2013-10-12 06:55:00,50.4,49.6,30.09,East,89,0.0,0.0,97,0.00,,,0.00,Wunderground v.1.15,2013-10-12 10:55:00,
2013-10-12 07:00:00,50.3,49.5,30.09,East,79,0.0,0.0,97,0.00,,,0.00,Wunderground v.1.15,2013-10-12 11:00:00,
2013-10-12 07:10:00,49.0,47.6,30.09,East,79,0.0,0.0,95,0.00,,,0.00,Wunderground v.1.15,2013-10-12 11:10:00,
2013-10-12 07:15:00,48.3,46.9,30.09,East,79,0.0,0.0,95,0.00,,,0.00,Wunderground v.1.15,2013-10-12 11:15:00,
2013-10-12 07:20:00,47.8,46.7,30.09,East,79,0.0,0.0,96,0.00,,,0.00,Wunderground v.1.15,2013-10-12 11:20:00,
2013-10-12 07:25:00,47.2,45.8,30.09,East,79,0.0,0.0,95,0.00,,,0.00,Wunderground v.1.15,2013-10-12 11:25:00,
2013-10-12 07:35:00,46.3,45.2,30.10,East,79,0.0,0.0,96,0.00,,,0.00,Wunderground v.1.15,2013-10-12 11:35:00,
2013-10-12 07:40:00,47.5,47.0,30.09,East,79,0.0,0.0,98,0.00,,,0.00,Wunderground v.1.15,2013-10-12 11:40:00,
2013-10-12 07:45:00,48.4,47.9,30.09,SSE,153,0.0,0.0,98,0.00,,,0.00,Wunderground v.1.15,2013-10-12 11:45:00,
2013-10-12 07:50:00,49.0,48.5,30.09,SSE,160,0.0,0.0,98,0.00,,,0.00,Wunderground v.1.15,2013-10-12 11:50:00,
2013-10-12 07:55:00,49.5,49.0,30.10,SSE,160,0.0,0.0,98,0.00,,,0.00,Wunderground v.1.15,2013-10-12 11:55:00,
2013-10-12 08:00:00,49.9,49.4,30.10,ESE,121,0.0,0.0,98,0.00,,,0.00,Wunderground v.1.15,2013-10-12 12:00:00,
2013-10-12 08:10:00,50.3,49.8,30.09,ESE,117,0.0,0.0,98,0.00,,,0.00,Wunderground v.1.15,2013-10-12 12:10:00,
2013-10-12 08:15:00,50.5,50.0,30.10,ESE,113,0.0,0.0,98,0.00,,,0.00,Wunderground v.1.15,2013-10-12 12:15:00,
2013-10-12 08:20:00,50.6,50.1,30.09,ESE,110,0.0,2.0,98,0.00,,,0.00,Wunderground v.1.15,2013-10-12 12:20:00,
2013-10-12 08:25:00,50.8,50.3,30.10,ESE,107,1.0,2.0,98,0.00,,,0.00,Wunderground v.1.15,2013-10-12 12:25:00,
2013-10-12 08:30:00,51.1,50.6,30.10,ESE,110,1.0,1.0,98,0.00,,,0.00,Wunderground v.1.15,2013-10-12 12:30:00,
2013-10-12 08:40:00,51.6,50.8,30.10,ESE,113,0.0,0.0,97,0.00,,,0.00,Wunderground v.1.15,2013-10-12 12:40:00,
2013-10-12 08:45:00,51.8,51.0,30.10,ESE,120,1.0,1.0,97,0.00,,,0.00,Wunderground v.1.15,2013-10-12 12:45:00,
2013-10-12 08:50:00,52.1,51.3,30.10,ESE,104,1.0,1.0,97,0.00,,,0.00,Wunderground v.1.15,2013-10-12 12:50:00,
2013-10-12 08:55:00,52.4,51.3,30.10,ESE,110,1.0,2.0,96,0.00,,,0.00,Wunderground v.1.15,2013-10-12 12:55:00,
2013-10-12 09:00:00,52.8,51.4,30.10,SE,127,1.0,1.0,95,0.00,,,0.00,Wunderground v.1.15,2013-10-12 13:00:00,
2013-10-12 09:10:00,53.4,51.7,30.10,ESE,122,1.0,1.0,94,0.00,,,0.00,Wunderground v.1.15,2013-10-12 13:10:00,
2013-10-12 09:15:00,53.7,51.7,30.10,ESE,107,1.0,1.0,93,0.00,,,0.00,Wunderground v.1.15,2013-10-12 13:15:00,
2013-10-12 09:20:00,54.0,52.0,30.10,SE,134,1.0,1.0,93,0.00,,,0.00,Wunderground v.1.15,2013-10-12 13:20:00,
2013-10-12 09:25:00,54.5,52.2,30.10,SSE,150,1.0,1.0,92,0.00,,,0.00,Wunderground v.1.15,2013-10-12 13:25:00,
2013-10-12 09:30:00,55.0,52.4,30.11,SSE,153,1.0,1.0,91,0.00,,,0.00,Wunderground v.1.15,2013-10-12 13:30:00,
2013-10-12 09:35:00,55.6,53.0,30.11,SE,141,1.0,1.0,91,0.00,,,0.00,Wunderground v.1.15,2013-10-12 13:35:00,
2013-10-12 09:45:00,56.1,52.9,30.10,SE,138,2.0,4.0,89,0.00,,,0.00,Wunderground v.1.15,2013-10-12 13:45:00,
2013-10-12 09:50:00,56.5,53.3,30.11,SSE,158,3.0,3.0,89,0.00,,,0.00,Wunderground v.1.15,2013-10-12 13:50:00,
2013-10-12 09:55:00,57.1,53.3,30.11,SSE,148,2.0,3.0,87,0.00,,,0.00,Wunderground v.1.15,2013-10-12 13:55:00,
2013-10-12 10:00:00,57.5,53.7,30.10,SE,145,2.0,2.0,87,0.00,,,0.00,Wunderground v.1.15,2013-10-12 14:00:00,
2013-10-12 10:10:00,58.9,54.1,30.11,SSE,160,1.0,1.0,84,0.00,,,0.00,Wunderground v.1.15,2013-10-12 14:10:00,
2013-10-12 10:15:00,59.6,54.4,30.10,SE,134,1.0,1.0,83,0.00,,,0.00,Wunderground v.1.15,2013-10-12 14:15:00,
2013-10-12 10:20:00,60.0,54.8,30.10,SE,128,1.0,1.0,83,0.00,,,0.00,Wunderground v.1.15,2013-10-12 14:20:00,
2013-10-12 10:25:00,60.6,55.1,30.10,SSW,200,1.0,1.0,82,0.00,,,0.00,Wunderground v.1.15,2013-10-12 14:25:00,
2013-10-12 10:35:00,61.8,54.9,30.10,SW,215,1.0,3.0,78,0.00,,,0.00,Wunderground v.1.15,2013-10-12 14:35:00,
2013-10-12 10:40:00,62.1,54.8,30.10,SSE,150,2.0,2.0,77,0.00,,,0.00,Wunderground v.1.15,2013-10-12 14:40:00,
2013-10-12 10:45:00,62.9,55.2,30.10,SSE,156,2.0,3.0,76,0.00,,,0.00,Wunderground v.1.15,2013-10-12 14:45:00,
2013-10-12 10:50:00,63.7,55.6,30.10,SSE,165,2.0,2.0,75,0.00,,,0.00,Wunderground v.1.15,2013-10-12 14:50:00,
2013-10-12 10:55:00,64.2,55.4,30.10,SE,131,3.0,3.0,73,0.00,,,0.00,Wunderground v.1.15,2013-10-12 14:55:00,
2013-10-12 11:00:00,64.9,56.0,30.10,SSE,168,2.0,6.0,73,0.00,,,0.00,Wunderground v.1.15,2013-10-12 15:00:00,
2013-10-12 11:10:00,65.9,55.8,30.09,SE,138,3.0,3.0,70,0.00,,,0.00,Wunderground v.1.15,2013-10-12 15:10:00,
2013-10-12 11:20:00,67.1,55.8,30.09,South,189,3.0,3.0,67,0.00,,,0.00,Wunderground v.1.15,2013-10-12 15:20:00,
2013-10-12 11:25:00,67.6,56.2,30.09,South,190,3.0,3.0,67,0.00,,,0.00,Wunderground v.1.15,2013-10-12 15:25:00,
2013-10-12 11:30:00,68.2,56.8,30.09,SSW,210,3.0,3.0,67,0.00,,,0.00,Wunderground v.1.15,2013-10-12 15:30:00,
2013-10-12 11:35:00,68.7,55.2,30.09,SSE,166,4.0,4.0,62,0.00,,,0.00,Wunderground v.1.15,2013-10-12 15:35:00,
2013-10-12 11:40:00,69.1,56.4,30.09,SW,215,5.0,5.0,64,0.00,,,0.00,Wunderground v.1.15,2013-10-12 15:40:00,
2013-10-12 11:45:00,69.8,56.2,30.09,SW,224,4.0,5.0,62,0.00,,,0.00,Wunderground v.1.15,2013-10-12 15:45:00,
2013-10-12 11:55:00,70.7,56.6,30.08,South,169,4.0,5.0,61,0.00,,,0.00,Wunderground v.1.15,2013-10-12 15:55:00,
2013-10-12 12:00:00,71.0,55.9,30.08,SSE,166,4.0,7.0,59,0.00,,,0.00,Wunderground v.1.15,2013-10-12 16:00:00,
2013-10-12 12:10:00,71.6,56.0,30.07,SSE,168,5.0,5.0,58,0.00,,,0.00,Wunderground v.1.15,2013-10-12 16:10:00,
2013-10-12 12:15:00,71.9,55.3,30.07,SSE,166,5.0,7.0,56,0.00,,,0.00,Wunderground v.1.15,2013-10-12 16:15:00,
2013-10-12 12:25:00,72.6,56.5,30.07,SE,128,5.0,6.0,57,0.00,,,0.00,Wunderground v.1.15,2013-10-12 16:25:00,
2013-10-12 12:30:00,72.9,56.3,30.07,South,173,5.0,5.0,56,0.00,,,0.00,Wunderground v.1.15,2013-10-12 16:30:00,
2013-10-12 12:35:00,73.2,55.6,30.07,SSW,204,5.0,6.0,54,0.00,,,0.00,Wunderground v.1.15,2013-10-12 16:35:00,
2013-10-12 12:40:00,73.4,55.7,30.07,SSE,166,5.0,8.0,54,0.00,,,0.00,Wunderground v.1.15,2013-10-12 16:40:00,
2013-10-12 12:45:00,73.6,55.4,30.07,SSE,165,5.0,8.0,53,0.00,,,0.00,Wunderground v.1.15,2013-10-12 16:45:00,
2013-10-12 12:50:00,73.8,55.1,30.07,SW,222,5.0,5.0,52,0.00,,,0.00,Wunderground v.1.15,2013-10-12 16:50:00,
2013-10-12 13:00:00,74.4,55.1,30.07,SW,221,5.0,5.0,51,0.00,,,0.00,Wunderground v.1.15,2013-10-12 17:00:00,
2013-10-12 13:10:00,74.5,54.6,30.07,SSW,194,6.0,6.0,50,0.00,,,0.00,Wunderground v.1.15,2013-10-12 17:10:00,
2013-10-12 13:15:00,74.7,55.4,30.07,South,183,6.0,6.0,51,0.00,,,0.00,Wunderground v.1.15,2013-10-12 17:15:00,
2013-10-12 13:20:00,75.0,55.1,30.07,SE,135,5.0,5.0,50,0.00,,,0.00,Wunderground v.1.15,2013-10-12 17:20:00,
2013-10-12 13:30:00,75.5,55.0,30.06,SSW,197,5.0,5.0,49,0.00,,,0.00,Wunderground v.1.15,2013-10-12 17:30:00,
2013-10-12 13:35:00,75.7,55.7,30.06,South,188,5.0,7.0,50,0.00,,,0.00,Wunderground v.1.15,2013-10-12 17:35:00,
2013-10-12 13:40:00,75.7,55.2,30.06,South,183,5.0,8.0,49,0.00,,,0.00,Wunderground v.1.15,2013-10-12 17:40:00,
2013-10-12 13:45:00,75.8,55.3,30.06,SSE,166,5.0,12.0,49,0.00,,,0.00,Wunderground v.1.15,2013-10-12 17:45:00,
2013-10-12 13:50:00,76.0,54.9,30.06,SSW,201,6.0,6.0,48,0.00,,,0.00,Wunderground v.1.15,2013-10-12 17:50:00,
2013-10-12 13:55:00,76.2,55.1,30.06,South,174,6.0,6.0,48,0.00,,,0.00,Wunderground v.1.15,2013-10-12 17:55:00,
2013-10-12 14:00:00,76.6,54.9,30.06,SW,232,5.0,11.0,47,0.00,,,0.00,Wunderground v.1.15,2013-10-12 18:00:00,
2013-10-12 14:10:00,76.7,53.1,30.05,South,186,7.0,7.0,44,0.00,,,0.00,Wunderground v.1.15,2013-10-12 18:10:00,
2013-10-12 14:15:00,77.1,53.5,30.06,South,170,6.0,7.0,44,0.00,,,0.00,Wunderground v.1.15,2013-10-12 18:15:00,
2013-10-12 14:20:00,77.1,53.5,30.05,SW,224,5.0,9.0,44,0.00,,,0.00,Wunderground v.1.15,2013-10-12 18:20:00,
2013-10-12 14:25:00,77.1,53.5,30.05,SSW,197,6.0,9.0,44,0.00,,,0.00,Wunderground v.1.15,2013-10-12 18:25:00,
2013-10-12 14:30:00,77.2,53.6,30.05,SW,215,6.0,10.0,44,0.00,,,0.00,Wunderground v.1.15,2013-10-12 18:30:00,
2013-10-12 14:35:00,77.0,54.0,30.05,WSW,256,6.0,10.0,45,0.00,,,0.00,Wunderground v.1.15,2013-10-12 18:35:00,
2013-10-12 14:40:00,77.0,54.0,30.04,South,181,5.0,9.0,45,0.00,,,0.00,Wunderground v.1.15,2013-10-12 18:40:00,
2013-10-12 14:45:00,76.9,53.9,30.04,ESE,122,5.0,9.0,45,0.00,,,0.00,Wunderground v.1.15,2013-10-12 18:45:00,
2013-10-12 14:50:00,77.3,54.9,30.04,SW,219,7.0,7.0,46,0.00,,,0.00,Wunderground v.1.15,2013-10-12 18:50:00,
2013-10-12 14:55:00,77.8,54.8,30.03,SW,218,5.0,7.0,45,0.00,,,0.00,Wunderground v.1.15,2013-10-12 18:55:00,
2013-10-12 15:00:00,78.0,53.7,30.03,ESE,121,5.0,5.0,43,0.00,,,0.00,Wunderground v.1.15,2013-10-12 19:00:00,
2013-10-12 15:10:00,77.7,52.1,30.03,SW,229,6.0,7.0,41,0.00,,,0.00,Wunderground v.1.15,2013-10-12 19:10:00,
2013-10-12 15:15:00,77.4,51.9,30.03,South,188,6.0,7.0,41,0.00,,,0.00,Wunderground v.1.15,2013-10-12 19:15:00,
2013-10-12 15:20:00,76.9,52.1,30.03,SE,144,6.0,6.0,42,0.00,,,0.00,Wunderground v.1.15,2013-10-12 19:20:00,
2013-10-12 15:25:00,76.7,51.9,30.03,SSE,159,6.0,8.0,42,0.00,,,0.00,Wunderground v.1.15,2013-10-12 19:25:00,
2013-10-12 15:30:00,77.2,53.0,30.03,South,188,6.0,6.0,43,0.00,,,0.00,Wunderground v.1.15,2013-10-12 19:30:00,
2013-10-12 15:40:00,76.7,52.5,30.03,SW,215,6.0,6.0,43,0.00,,,0.00,Wunderground v.1.15,2013-10-12 19:40:00,
2013-10-12 15:45:00,76.6,52.4,30.03,SSW,210,5.0,8.0,43,0.00,,,0.00,Wunderground v.1.15,2013-10-12 19:45:00,
2013-10-12 15:50:00,76.6,52.4,30.04,West,270,5.0,7.0,43,0.00,,,0.00,Wunderground v.1.15,2013-10-12 19:50:00,
2013-10-12 15:55:00,76.6,52.4,30.03,SSW,206,6.0,7.0,43,0.00,,,0.00,Wunderground v.1.15,2013-10-12 19:55:00,
2013-10-12 16:00:00,77.0,51.5,30.03,SW,222,6.0,6.0,41,0.00,,,0.00,Wunderground v.1.15,2013-10-12 20:00:00,
2013-10-12 16:10:00,77.2,51.7,30.03,WSW,239,6.0,7.0,41,0.00,,,0.00,Wunderground v.1.15,2013-10-12 20:10:00,
2013-10-12 16:15:00,77.1,52.2,30.03,SSE,167,6.0,7.0,42,0.00,,,0.00,Wunderground v.1.15,2013-10-12 20:15:00,
2013-10-12 16:20:00,77.5,51.9,30.03,SW,220,5.0,5.0,41,0.00,,,0.00,Wunderground v.1.15,2013-10-12 20:20:00,
2013-10-12 16:25:00,77.9,52.3,30.03,South,189,5.0,7.0,41,0.00,,,0.00,Wunderground v.1.15,2013-10-12 20:25:00,
2013-10-12 16:30:00,78.2,51.9,30.03,South,184,5.0,5.0,40,0.00,,,0.00,Wunderground v.1.15,2013-10-12 20:30:00,
2013-10-12 16:35:00,78.4,51.4,30.03,WSW,255,5.0,6.0,39,0.00,,,0.00,Wunderground v.1.15,2013-10-12 20:35:00,
2013-10-12 16:45:00,78.0,52.4,30.03,SSW,202,4.0,5.0,41,0.00,,,0.00,Wunderground v.1.15,2013-10-12 20:45:00,
2013-10-12 16:50:00,77.2,51.7,30.03,SW,218,6.0,7.0,41,0.00,,,0.00,Wunderground v.1.15,2013-10-12 20:50:00,
2013-10-12 16:55:00,76.5,51.7,30.03,WSW,239,6.0,7.0,42,0.00,,,0.00,Wunderground v.1.15,2013-10-12 20:55:00,
2013-10-12 17:00:00,76.2,52.1,30.03,SW,235,5.0,5.0,43,0.00,,,0.00,Wunderground v.1.15,2013-10-12 21:00:00,
2013-10-12 17:10:00,75.8,52.9,30.03,SSW,212,4.0,6.0,45,0.00,,,0.00,Wunderground v.1.15,2013-10-12 21:10:00,
2013-10-12 17:15:00,75.9,52.4,30.03,SW,226,4.0,6.0,44,0.00,,,0.00,Wunderground v.1.15,2013-10-12 21:15:00,
2013-10-12 17:20:00,76.0,52.5,30.03,SW,224,4.0,4.0,44,0.00,,,0.00,Wunderground v.1.15,2013-10-12 21:20:00,
2013-10-12 17:25:00,75.8,52.9,30.04,SW,233,3.0,5.0,45,0.00,,,0.00,Wunderground v.1.15,2013-10-12 21:25:00,
2013-10-12 17:30:00,75.5,52.7,30.03,WSW,238,3.0,5.0,45,0.00,,,0.00,Wunderground v.1.15,2013-10-12 21:30:00,
2013-10-12 17:35:00,75.2,53.0,30.03,SW,232,3.0,5.0,46,0.00,,,0.00,Wunderground v.1.15,2013-10-12 21:35:00,
2013-10-12 17:40:00,74.9,53.9,30.04,SW,218,3.0,3.0,48,0.00,,,0.00,Wunderground v.1.15,2013-10-12 21:40:00,
2013-10-12 17:50:00,74.6,54.2,30.04,West,274,2.0,2.0,49,0.00,,,0.00,Wunderground v.1.15,2013-10-12 21:50:00,
2013-10-12 17:55:00,74.6,54.2,30.04,SW,225,3.0,3.0,49,0.00,,,0.00,Wunderground v.1.15,2013-10-12 21:55:00,
2013-10-12 18:00:00,74.4,54.5,30.04,WNW,293,2.0,2.0,50,0.00,,,0.00,Wunderground v.1.15,2013-10-12 22:00:00,
2013-10-12 18:10:00,74.0,55.3,30.04,West,262,2.0,2.0,52,0.00,,,0.00,Wunderground v.1.15,2013-10-12 22:10:00,
2013-10-12 18:20:00,73.6,54.9,30.04,SW,223,2.0,2.0,52,0.00,,,0.00,Wunderground v.1.15,2013-10-12 22:20:00,
2013-10-12 18:25:00,73.4,55.2,30.04,SW,226,1.0,2.0,53,0.00,,,0.00,Wunderground v.1.15,2013-10-12 22:25:00,
2013-10-12 18:30:00,73.2,55.0,30.04,SW,218,1.0,2.0,53,0.00,,,0.00,Wunderground v.1.15,2013-10-12 22:30:00,
2013-10-12 18:35:00,73.0,55.4,30.05,West,274,1.0,2.0,54,0.00,,,0.00,Wunderground v.1.15,2013-10-12 22:35:00,
2013-10-12 18:40:00,72.6,55.0,30.05,WSW,245,1.0,1.0,54,0.00,,,0.00,Wunderground v.1.15,2013-10-12 22:40:00,
2013-10-12 18:45:00,72.2,55.1,30.05,WSW,256,1.0,2.0,55,0.00,,,0.00,Wunderground v.1.15,2013-10-12 22:45:00,
2013-10-12 18:55:00,71.8,55.3,30.05,WSW,239,1.0,2.0,56,0.00,,,0.00,Wunderground v.1.15,2013-10-12 22:55:00,
2013-10-12 19:00:00,71.6,55.6,30.05,SW,222,1.0,1.0,57,0.00,,,0.00,Wunderground v.1.15,2013-10-12 23:00:00,
2013-10-12 19:10:00,71.4,55.4,30.05,SW,232,1.0,1.0,57,0.00,,,0.00,Wunderground v.1.15,2013-10-12 23:10:00,
2013-10-12 19:15:00,71.1,55.6,30.05,SW,232,0.0,1.0,58,0.00,,,0.00,Wunderground v.1.15,2013-10-12 23:15:00,
2013-10-12 19:25:00,70.3,55.3,30.05,SW,231,0.0,0.0,59,0.00,,,0.00,Wunderground v.1.15,2013-10-12 23:25:00,
2013-10-12 19:30:00,69.8,55.3,30.05,SW,232,0.0,0.0,60,0.00,,,0.00,Wunderground v.1.15,2013-10-12 23:30:00,
2013-10-12 19:35:00,69.4,54.9,30.06,SW,232,0.0,0.0,60,0.00,,,0.00,Wunderground v.1.15,2013-10-12 23:35:00,
2013-10-12 19:40:00,68.8,55.2,30.06,SW,231,0.0,0.0,62,0.00,,,0.00,Wunderground v.1.15,2013-10-12 23:40:00,
2013-10-12 19:45:00,68.4,55.3,30.06,SW,232,0.0,0.0,63,0.00,,,0.00,Wunderground v.1.15,2013-10-12 23:45:00,
2013-10-12 19:50:00,68.1,55.5,30.06,SW,232,0.0,0.0,64,0.00,,,0.00,Wunderground v.1.15,2013-10-12 23:50:00,
2013-10-12 19:55:00,67.8,55.2,30.06,SW,232,0.0,0.0,64,0.00,,,0.00,Wunderground v.1.15,2013-10-12 23:55:00,
2013-10-12 20:00:00,67.7,55.5,30.06,SW,232,0.0,0.0,65,0.00,,,0.00,Wunderground v.1.15,2013-10-13 00:00:00,
2013-10-12 20:10:00,67.9,55.7,30.06,SW,232,0.0,0.0,65,0.00,,,0.00,Wunderground v.1.15,2013-10-13 00:10:00,
2013-10-12 20:15:00,67.9,55.7,30.06,SW,232,0.0,0.0,65,0.00,,,0.00,Wunderground v.1.15,2013-10-13 00:15:00,
2013-10-12 20:20:00,67.8,55.6,30.07,SW,232,0.0,0.0,65,0.00,,,0.00,Wunderground v.1.15,2013-10-13 00:20:00,
2013-10-12 20:30:00,67.9,56.1,30.07,SW,235,0.0,0.0,66,0.00,,,0.00,Wunderground v.1.15,2013-10-13 00:30:00,
2013-10-12 20:35:00,68.1,56.3,30.07,SW,235,0.0,0.0,66,0.00,,,0.00,Wunderground v.1.15,2013-10-13 00:35:00,
2013-10-12 20:40:00,68.1,56.3,30.07,WNW,290,0.0,0.0,66,0.00,,,0.00,Wunderground v.1.15,2013-10-13 00:40:00,
2013-10-12 20:45:00,68.1,56.3,30.07,WNW,290,0.0,0.0,66,0.00,,,0.00,Wunderground v.1.15,2013-10-13 00:45:00,
2013-10-12 20:50:00,68.3,56.5,30.07,West,267,0.0,1.0,66,0.00,,,0.00,Wunderground v.1.15,2013-10-13 00:50:00,
2013-10-12 21:00:00,68.4,56.6,30.08,WNW,290,1.0,3.0,66,0.00,,,0.00,Wunderground v.1.15,2013-10-13 01:00:00,
2013-10-12 21:10:00,68.6,58.8,30.09,West,281,4.0,7.0,71,0.00,,,0.00,Wunderground v.1.15,2013-10-13 01:10:00,
2013-10-12 21:15:00,67.7,59.9,30.09,WNW,295,5.0,7.0,76,0.00,,,0.00,Wunderground v.1.15,2013-10-13 01:15:00,
2013-10-12 21:20:00,66.6,60.2,30.09,WNW,293,5.0,5.0,80,0.00,,,0.00,Wunderground v.1.15,2013-10-13 01:20:00,
2013-10-12 21:25:00,65.8,60.8,30.09,NW,308,4.0,6.0,84,0.00,,,0.00,Wunderground v.1.15,2013-10-13 01:25:00,
2013-10-12 21:35:00,64.6,61.3,30.10,WNW,294,3.0,4.0,89,0.27,,,0.06,Wunderground v.1.15,2013-10-13 01:35:00,
2013-10-12 21:40:00,64.1,61.4,30.10,North,356,2.0,2.0,91,0.10,,,0.06,Wunderground v.1.15,2013-10-13 01:40:00,
2013-10-12 21:45:00,63.9,61.5,30.10,North,349,2.0,2.0,92,0.27,,,0.08,Wunderground v.1.15,2013-10-13 01:45:00,
2013-10-12 21:50:00,63.7,61.6,30.10,NNW,348,1.0,1.0,93,0.08,,,0.08,Wunderground v.1.15,2013-10-13 01:50:00,
2013-10-12 21:55:00,63.5,61.4,30.11,West,281,1.0,1.0,93,0.05,,,0.08,Wunderground v.1.15,2013-10-13 01:55:00,
2013-10-12 22:00:00,63.4,61.6,30.11,NNW,328,1.0,1.0,94,0.00,,,0.08,Wunderground v.1.15,2013-10-13 02:00:00,
2013-10-12 22:10:00,63.4,61.9,30.11,WNW,284,1.0,1.0,95,0.00,,,0.08,Wunderground v.1.15,2013-10-13 02:10:00,
2013-10-12 22:15:00,63.4,61.9,30.11,WNW,287,1.0,1.0,95,0.00,,,0.08,Wunderground v.1.15,2013-10-13 02:15:00,
2013-10-12 22:20:00,63.3,61.8,30.11,WNW,287,0.0,0.0,95,0.00,,,0.08,Wunderground v.1.15,2013-10-13 02:20:00,
2013-10-12 22:25:00,63.3,61.8,30.11,WNW,287,0.0,0.0,95,0.00,,,0.08,Wunderground v.1.15,2013-10-13 02:25:00,
2013-10-12 22:30:00,63.2,61.7,30.11,WNW,287,0.0,0.0,95,0.00,,,0.08,Wunderground v.1.15,2013-10-13 02:30:00,
2013-10-12 22:40:00,63.1,61.9,30.12,WNW,286,0.0,1.0,96,0.00,,,0.08,Wunderground v.1.15,2013-10-13 02:40:00,
2013-10-12 22:45:00,63.0,61.8,30.12,WNW,302,0.0,2.0,96,0.00,,,0.08,Wunderground v.1.15,2013-10-13 02:45:00,
2013-10-12 22:50:00,63.0,61.8,30.12,NW,316,1.0,1.0,96,0.00,,,0.08,Wunderground v.1.15,2013-10-13 02:50:00,
2013-10-12 22:55:00,63.0,61.8,30.13,WNW,295,2.0,2.0,96,0.00,,,0.08,Wunderground v.1.15,2013-10-13 02:55:00,
2013-10-12 23:00:00,63.0,61.8,30.13,WNW,298,3.0,3.0,96,0.00,,,0.08,Wunderground v.1.15,2013-10-13 03:00:00,
2013-10-12 23:10:00,63.0,61.5,30.13,WNW,293,3.0,3.0,95,0.00,,,0.08,Wunderground v.1.15,2013-10-13 03:10:00,
2013-10-12 23:15:00,62.9,61.4,30.13,WNW,303,2.0,3.0,95,0.00,,,0.08,Wunderground v.1.15,2013-10-13 03:15:00,
2013-10-12 23:20:00,62.8,61.3,30.13,WNW,295,2.0,2.0,95,0.00,,,0.08,Wunderground v.1.15,2013-10-13 03:20:00,
2013-10-12 23:25:00,62.6,60.8,30.13,WNW,288,1.0,2.0,94,0.00,,,0.08,Wunderground v.1.15,2013-10-13 03:25:00,
2013-10-12 23:30:00,62.4,60.9,30.13,NNW,339,0.0,0.0,95,0.00,,,0.08,Wunderground v.1.15,2013-10-13 03:30:00,
2013-10-12 23:35:00,62.2,60.8,30.13,WNW,298,0.0,0.0,95,0.00,,,0.08,Wunderground v.1.15,2013-10-13 03:35:00,
2013-10-12 23:40:00,62.0,60.6,30.14,WNW,300,0.0,0.0,95,0.00,,,0.08,Wunderground v.1.15,2013-10-13 03:40:00,
2013-10-12 23:45:00,61.8,60.4,30.14,WNW,300,0.0,0.0,95,0.00,,,0.08,Wunderground v.1.15,2013-10-13 03:45:00,
2013-10-12 23:55:00,61.4,60.0,30.14,North,352,0.0,0.0,95,0.00,,,0.08,Wunderground v.1.15,2013-10-13 03:55:00,